Time;durP1;ratioP1;P1;durP2;ratioP2;P2;SDS_P1;SDS_P2;PMS_P1;PMS_P2;Temp;Humidity;BMP_temperature;BMP_pressure;BME280_temperature;BME280_humidity;BME280_pressure;Samples;Min_cycle;Max_cycle;Signal;HPM_P1;HPM_P2
2021/07/20 00:02:21;;;;;;;1999.90;999.90;;;10.80;99.90;;;;;;5092753;28;20567;-55
2021/07/20 00:04:48;;;;;;;1999.90;999.90;;;10.80;99.90;;;;;;5092672;28;20168;-56
2021/07/20 00:07:15;;;;;;;1999.90;999.90;;;10.80;99.90;;;;;;5092704;28;20223;-52
2021/07/20 00:09:42;;;;;;;1999.90;999.90;;;10.70;99.90;;;;;;5092743;28;20164;-56
2021/07/20 00:12:09;;;;;;;1999.90;999.90;;;10.70;99.90;;;;;;5092588;28;20262;-57
2021/07/20 00:14:36;;;;;;;1999.90;999.90;;;10.70;99.90;;;;;;5092706;28;20225;-54
2021/07/20 00:17:03;;;;;;;1999.90;999.90;;;10.60;99.90;;;;;;5092472;28;20272;-57
2021/07/20 00:19:31;;;;;;;1999.90;999.90;;;10.60;99.90;;;;;;5092605;28;20247;-57
2021/07/20 00:21:58;;;;;;;1999.90;999.90;;;10.70;99.90;;;;;;5092651;28;20202;-57
2021/07/20 00:24:24;;;;;;;1999.90;999.90;;;10.70;99.90;;;;;;5092640;28;20235;-55
2021/07/20 00:26:51;;;;;;;1999.90;999.90;;;10.70;99.90;;;;;;5092437;28;20199;-54
2021/07/20 00:29:18;;;;;;;1999.90;999.90;;;10.70;99.90;;;;;;5092455;28;20168;-56
2021/07/20 00:31:44;;;;;;;1999.90;999.90;;;10.60;99.90;;;;;;5092310;28;20247;-56
2021/07/20 00:34:11;;;;;;;1999.90;999.90;;;10.60;99.90;;;;;;5096054;28;20321;-57
2021/07/20 00:36:38;;;;;;;1999.90;999.90;;;10.60;99.90;;;;;;5096208;28;20190;-58
2021/07/20 00:39:06;;;;;;;1999.90;999.90;;;10.60;99.90;;;;;;5096201;28;20637;-57
2021/07/20 00:41:33;;;;;;;1999.90;999.90;;;10.60;99.90;;;;;;5096081;28;20172;-57
2021/07/20 00:44:00;;;;;;;1999.90;999.90;;;10.70;99.90;;;;;;5096213;28;20179;-57
2021/07/20 00:46:27;;;;;;;1999.90;999.90;;;10.70;99.90;;;;;;5096137;28;20648;-50
2021/07/20 00:48:54;;;;;;;1999.90;999.90;;;10.60;99.90;;;;;;5096015;28;20297;-57
2021/07/20 00:51:20;;;;;;;1999.90;999.90;;;10.60;99.90;;;;;;5095911;28;20176;-58
2021/07/20 00:53:48;;;;;;;1999.90;999.90;;;10.60;99.90;;;;;;5095912;28;20255;-55
2021/07/20 00:56:16;;;;;;;1999.90;999.90;;;10.60;99.90;;;;;;5095973;28;20548;-58
2021/07/20 00:58:44;;;;;;;1999.90;999.90;;;10.70;99.90;;;;;;5095869;28;20164;-58
2021/07/20 01:01:12;;;;;;;1999.90;999.90;;;10.60;99.90;;;;;;5095789;28;20229;-58
2021/07/20 01:03:39;;;;;;;1999.90;999.90;;;10.70;99.90;;;;;;5095721;28;20182;-57
2021/07/20 01:06:08;;;;;;;1999.90;999.90;;;10.70;99.90;;;;;;5095702;28;20176;-56
2021/07/20 01:08:35;;;;;;;1999.90;999.90;;;10.70;99.90;;;;;;5095655;28;20234;-57
2021/07/20 01:11:03;;;;;;;1999.90;999.90;;;10.70;99.90;;;;;;5095695;28;20177;-58
2021/07/20 01:13:32;;;;;;;1999.90;999.90;;;10.70;99.90;;;;;;5095584;28;20160;-59
2021/07/20 01:16:00;;;;;;;1999.90;999.90;;;10.70;99.90;;;;;;5095268;28;20220;-58
2021/07/20 01:18:28;;;;;;;1999.90;999.90;;;10.70;99.90;;;;;;5095370;28;20160;-58
2021/07/20 01:20:56;;;;;;;1999.90;999.90;;;10.70;99.90;;;;;;5095273;28;20191;-57
2021/07/20 01:23:42;;;;;;;1999.90;999.90;;;10.90;99.90;;;;;;5095384;28;20160;-58
2021/07/20 01:26:08;;;;;;;1999.90;999.90;;;10.90;99.90;;;;;;5095203;28;20163;-52
2021/07/20 01:28:37;;;;;;;1999.90;999.90;;;11.00;99.90;;;;;;5095118;28;20203;-46
2021/07/20 01:31:10;;;;;;;1999.90;999.90;;;10.90;99.90;;;;;;5095263;28;20534;-56
2021/07/20 01:33:41;;;;;;;1999.90;999.90;;;10.90;99.90;;;;;;5095124;28;20235;-58
2021/07/20 01:36:09;;;;;;;1999.90;999.90;;;11.00;99.90;;;;;;5094867;28;20638;-54
2021/07/20 01:38:38;;;;;;;1999.90;999.90;;;11.00;99.90;;;;;;5094992;28;20168;-46
2021/07/20 01:41:09;;;;;;;1999.90;999.90;;;11.00;99.90;;;;;;5094935;28;20160;-57
2021/07/20 01:43:39;;;;;;;1999.90;999.90;;;11.10;99.90;;;;;;5094134;28;20164;-46
2021/07/20 01:46:06;;;;;;;1999.90;999.90;;;11.20;99.90;;;;;;5094789;28;20221;-57
2021/07/20 01:48:37;;;;;;;1999.90;999.90;;;11.20;99.90;;;;;;5094711;28;20199;-58
2021/07/20 01:51:05;;;;;;;1999.90;999.90;;;11.20;99.90;;;;;;5094966;28;20164;-58
2021/07/20 01:53:33;;;;;;;1999.90;999.90;;;11.20;99.90;;;;;;5094666;28;20167;-57
2021/07/20 01:56:03;;;;;;;1999.90;999.90;;;11.20;99.90;;;;;;5094581;28;20171;-58
2021/07/20 01:58:30;;;;;;;1999.90;999.90;;;11.10;99.90;;;;;;5094531;28;20652;-58
2021/07/20 02:00:58;;;;;;;1999.90;999.90;;;11.10;99.90;;;;;;5094426;28;20633;-51
2021/07/20 02:03:34;;;;;;;1999.90;999.90;;;11.10;99.90;;;;;;5094208;28;20163;-58
2021/07/20 02:08:53;;;;;;;1999.90;999.90;;;11.00;99.90;;;;;;5094611;28;20234;-58
2021/07/20 02:11:26;;;;;;;1999.90;999.90;;;11.10;99.90;;;;;;5094248;28;20164;-57
2021/07/20 02:13:59;;;;;;;1999.90;999.90;;;11.10;99.90;;;;;;5094243;28;20175;-57
2021/07/20 02:16:34;;;;;;;1999.90;999.90;;;11.10;99.90;;;;;;5093953;28;20224;-53
2021/07/20 02:19:15;;;;;;;1999.90;999.90;;;11.10;99.90;;;;;;5094272;28;20238;-58
2021/07/20 02:21:47;;;;;;;1999.90;999.90;;;11.10;99.90;;;;;;5094124;28;20156;-58
2021/07/20 02:24:16;;;;;;;1999.90;999.90;;;11.10;99.90;;;;;;5094080;28;20160;-56
2021/07/20 02:26:43;;;;;;;1999.90;999.90;;;11.10;99.90;;;;;;5094008;28;20192;-57
2021/07/20 02:29:11;;;;;;;1999.90;999.90;;;11.10;99.90;;;;;;5093939;28;20642;-50
2021/07/20 02:31:40;;;;;;;1999.90;999.90;;;11.20;99.90;;;;;;5094058;28;20164;-58
2021/07/20 02:34:07;;;;;;;1999.90;999.90;;;11.20;99.90;;;;;;5094011;28;20175;-51
2021/07/20 02:36:39;;;;;;;1999.90;999.90;;;11.20;99.90;;;;;;5094049;28;20164;-57
2021/07/20 02:39:08;;;;;;;1999.90;999.90;;;11.30;99.90;;;;;;5094072;28;20276;-57
2021/07/20 02:41:36;;;;;;;1999.90;999.90;;;11.30;99.90;;;;;;5093822;28;20661;-57
2021/07/20 02:44:06;;;;;;;1999.90;999.90;;;11.20;99.90;;;;;;5093739;28;20516;-58
2021/07/20 02:46:36;;;;;;;1999.90;999.90;;;11.10;99.90;;;;;;5093717;28;20172;-57
2021/07/20 02:49:04;;;;;;;1999.90;999.90;;;11.10;99.90;;;;;;5094048;28;20152;-57
2021/07/20 02:51:33;;;;;;;1999.90;999.90;;;11.10;99.90;;;;;;5093604;28;20275;-58
2021/07/20 02:54:01;;;;;;;1999.90;999.90;;;11.10;99.90;;;;;;5093486;28;20167;-58
2021/07/20 02:56:29;;;;;;;1999.90;999.90;;;11.10;99.90;;;;;;5093475;28;20202;-56
2021/07/20 02:59:01;;;;;;;1999.90;999.90;;;11.10;99.90;;;;;;5093596;28;20191;-56
2021/07/20 03:01:32;;;;;;;1999.90;999.90;;;11.20;99.90;;;;;;5093615;28;20164;-58
2021/07/20 03:04:00;;;;;;;1999.90;999.90;;;11.10;99.90;;;;;;5093718;28;20164;-58
2021/07/20 03:06:27;;;;;;;1999.90;999.90;;;11.10;99.90;;;;;;5093174;28;20179;-57
2021/07/20 03:09:00;;;;;;;1999.90;999.90;;;11.10;99.90;;;;;;5093302;28;20172;-58
2021/07/20 03:11:48;;;;;;;1999.90;999.90;;;11.00;99.90;;;;;;5093331;28;20162;-57
2021/07/20 03:14:19;;;;;;;1999.90;999.90;;;11.10;99.90;;;;;;5093455;28;20246;-55
2021/07/20 03:16:47;;;;;;;1999.90;999.90;;;11.20;99.90;;;;;;5092978;28;20218;-57
2021/07/20 03:19:15;;;;;;;1999.90;999.90;;;11.30;99.90;;;;;;5093220;28;20251;-58
2021/07/20 03:21:43;;;;;;;1999.90;999.90;;;11.30;99.90;;;;;;5093087;28;20170;-57
2021/07/20 03:24:11;;;;;;;1999.90;999.90;;;11.30;99.90;;;;;;5093186;28;20171;-57
2021/07/20 03:26:40;;;;;;;1999.90;999.90;;;11.30;99.90;;;;;;5092975;28;20179;-57
2021/07/20 03:29:09;;;;;;;1999.90;999.90;;;11.40;99.90;;;;;;5092943;28;20202;-58
2021/07/20 03:31:37;;;;;;;1999.90;999.90;;;11.30;99.90;;;;;;5092921;28;20164;-57
2021/07/20 03:34:06;;;;;;;1999.90;999.90;;;11.20;99.90;;;;;;5092932;28;20175;-56
2021/07/20 03:36:33;;;;;;;1999.90;999.90;;;11.10;99.90;;;;;;5092805;28;20206;-58
2021/07/20 03:39:02;;;;;;;1999.90;999.90;;;11.00;99.90;;;;;;5092813;28;20588;-58
2021/07/20 03:41:31;;;;;;;1999.90;999.90;;;11.00;99.90;;;;;;5092693;28;20183;-58
2021/07/20 03:43:58;;;;;;;1999.90;999.90;;;11.00;99.90;;;;;;5092803;28;20199;-58
2021/07/20 03:46:26;;;;;;;1999.90;999.90;;;10.90;99.90;;;;;;5092633;28;20171;-58
2021/07/20 03:48:53;;;;;;;1999.90;999.90;;;11.00;99.90;;;;;;5092725;28;20174;-58
2021/07/20 03:51:22;;;;;;;1999.90;999.90;;;11.00;99.90;;;;;;5092732;28;20170;-58
2021/07/20 03:53:50;;;;;;;1999.90;999.90;;;11.00;99.90;;;;;;5092654;28;20250;-58
2021/07/20 03:56:18;;;;;;;1999.90;999.90;;;11.00;99.90;;;;;;5092804;28;20168;-51
2021/07/20 03:58:47;;;;;;;1999.90;999.90;;;11.00;99.90;;;;;;5092850;28;20168;-57
2021/07/20 04:01:15;;;;;;;1999.90;999.90;;;11.10;99.90;;;;;;5092836;28;20228;-58
2021/07/20 04:03:44;;;;;;;1999.90;999.90;;;11.00;99.90;;;;;;5092648;28;20649;-58
2021/07/20 04:06:15;;;;;;;1999.90;999.90;;;11.00;99.90;;;;;;5092718;28;20518;-58
2021/07/20 04:08:44;;;;;;;1999.90;999.90;;;11.00;99.90;;;;;;5095896;28;20187;-57
2021/07/20 04:11:13;;;;;;;1999.90;999.90;;;11.00;99.90;;;;;;5096534;28;20634;-58
2021/07/20 04:13:40;;;;;;;1999.90;999.90;;;11.00;99.90;;;;;;5096538;28;20175;-58
2021/07/20 04:16:08;;;;;;;1999.90;999.90;;;10.90;99.90;;;;;;5096355;28;20223;-58
2021/07/20 04:18:37;;;;;;;1999.90;999.90;;;10.90;99.90;;;;;;5096584;28;20213;-56
2021/07/20 04:21:06;;;;;;;1999.90;999.90;;;10.90;99.90;;;;;;5096449;28;20172;-58
2021/07/20 04:23:34;;;;;;;1999.90;999.90;;;10.90;99.90;;;;;;5096519;28;20312;-56
2021/07/20 04:26:02;;;;;;;1999.90;999.90;;;10.90;99.90;;;;;;5096346;28;20164;-56
2021/07/20 04:28:29;;;;;;;1999.90;999.90;;;10.90;99.90;;;;;;5096327;28;20207;-58
2021/07/20 04:30:59;;;;;;;1999.90;999.90;;;10.90;99.90;;;;;;5096313;28;20199;-53
2021/07/20 04:33:30;;;;;;;1999.90;999.90;;;10.80;99.90;;;;;;5096174;28;20207;-58
2021/07/20 04:35:58;;;;;;;1999.90;999.90;;;10.90;99.90;;;;;;5096251;28;20239;-59
2021/07/20 04:38:28;;;;;;;1999.90;999.90;;;10.80;99.90;;;;;;5096105;28;20534;-58
2021/07/20 04:40:55;;;;;;;1999.90;999.90;;;10.60;99.90;;;;;;5096023;28;20174;-59
2021/07/20 04:43:22;;;;;;;1999.90;999.90;;;10.50;99.90;;;;;;5095948;28;20168;-56
2021/07/20 04:45:53;;;;;;;1999.90;999.90;;;10.50;99.90;;;;;;5096263;28;20176;-58
2021/07/20 04:48:20;;;;;;;1999.90;999.90;;;10.50;99.90;;;;;;5095861;28;20282;-59
2021/07/20 04:50:50;;;;;;;1999.90;999.90;;;10.60;99.90;;;;;;5096029;28;20160;-52
2021/07/20 04:53:17;;;;;;;1999.90;999.90;;;10.50;99.90;;;;;;5095952;28;20206;-51
2021/07/20 04:55:45;;;;;;;1999.90;999.90;;;10.50;99.90;;;;;;5095682;28;20527;-58
2021/07/20 04:58:14;;;;;;;1999.90;999.90;;;10.50;99.90;;;;;;5095616;28;20232;-56
2021/07/20 05:00:44;;;;;;;1999.90;999.90;;;10.50;99.90;;;;;;5095428;28;20183;-58
2021/07/20 05:03:13;;;;;;;1999.90;999.90;;;10.40;99.90;;;;;;5095580;28;20160;-58
2021/07/20 05:05:40;;;;;;;1999.90;999.90;;;10.40;99.90;;;;;;5094068;28;20172;-58
2021/07/20 05:08:09;;;;;;;1999.90;999.90;;;10.40;99.90;;;;;;5095311;28;20567;-57
2021/07/20 05:10:37;;;;;;;1999.90;999.90;;;10.40;99.90;;;;;;5095381;28;20168;-54
2021/07/20 05:13:08;;;;;;;1999.90;999.90;;;10.40;99.90;;;;;;5095257;28;20168;-57
2021/07/20 05:15:36;;;;;;;1999.90;999.90;;;10.40;99.90;;;;;;5095045;28;20211;-52
2021/07/20 05:18:03;;;;;;;1999.90;999.90;;;10.40;99.90;;;;;;5094894;28;20168;-58
2021/07/20 05:20:30;;;;;;;1999.90;999.90;;;10.30;99.90;;;;;;5094135;28;20172;-58
2021/07/20 05:22:59;;;;;;;1999.90;999.90;;;10.30;99.90;;;;;;5095025;28;20247;-58
2021/07/20 05:25:25;;;;;;;1999.90;999.90;;;10.40;99.90;;;;;;5095086;28;20213;-56
2021/07/20 05:27:56;;;;;;;1999.90;999.90;;;10.40;99.90;;;;;;5095067;28;20208;-57
2021/07/20 05:30:23;;;;;;;1999.90;999.90;;;10.40;99.90;;;;;;5094926;28;20164;-58
2021/07/20 05:32:51;;;;;;;1999.90;999.90;;;10.40;99.90;;;;;;5095065;28;20179;-57
2021/07/20 05:35:19;;;;;;;1999.90;999.90;;;10.40;99.90;;;;;;5094764;28;20180;-57
2021/07/20 05:37:49;;;;;;;1999.90;999.90;;;10.50;99.90;;;;;;5094879;28;20760;-58
2021/07/20 05:40:18;;;;;;;1999.90;999.90;;;10.50;99.90;;;;;;5094413;28;20178;-58
2021/07/20 05:42:46;;;;;;;1999.90;999.90;;;10.50;99.90;;;;;;5094430;28;20586;-57
2021/07/20 05:45:14;;;;;;;1999.90;999.90;;;10.50;99.90;;;;;;5094445;28;20671;-57
2021/07/20 05:47:45;;;;;;;1999.90;999.90;;;10.50;99.90;;;;;;5094462;28;20558;-58
2021/07/20 05:50:14;;;;;;;1999.90;999.90;;;10.60;99.90;;;;;;5094414;28;20184;-53
2021/07/20 05:52:43;;;;;;;1999.90;999.90;;;10.50;99.90;;;;;;5094400;28;20229;-57
2021/07/20 05:55:12;;;;;;;1999.90;999.90;;;10.50;99.90;;;;;;5094410;28;20202;-57
2021/07/20 05:57:41;;;;;;;1999.90;999.90;;;10.60;99.90;;;;;;5094302;28;20213;-57
2021/07/20 06:00:10;;;;;;;1999.90;999.90;;;10.50;99.90;;;;;;5094611;28;20512;-53
2021/07/20 06:02:39;;;;;;;1999.90;999.90;;;10.60;99.90;;;;;;5094168;28;20171;-58
2021/07/20 06:05:08;;;;;;;1999.90;999.90;;;10.60;99.90;;;;;;5094071;28;20202;-50
2021/07/20 06:07:38;;;;;;;1999.90;999.90;;;10.50;99.90;;;;;;5094169;28;20199;-57
2021/07/20 06:10:06;;;;;;;1999.90;999.90;;;10.50;99.90;;;;;;5094188;28;20211;-47
2021/07/20 06:12:35;;;;;;;1999.90;999.90;;;10.50;99.90;;;;;;5094234;28;20209;-53
2021/07/20 06:15:04;;;;;;;1999.90;999.90;;;10.50;99.90;;;;;;5093690;28;20168;-46
2021/07/20 06:17:31;;;;;;;1999.90;999.90;;;10.50;99.90;;;;;;5094027;28;20277;-46
2021/07/20 06:19:59;;;;;;;1999.90;999.90;;;10.60;99.90;;;;;;5094071;28;20618;-56
2021/07/20 06:22:34;;;;;;;1999.90;999.90;;;10.90;99.90;;;;;;5093914;28;20239;-50
2021/07/20 06:25:03;;;;;;;1999.90;999.90;;;11.00;99.90;;;;;;5093595;28;20179;-46
2021/07/20 06:27:31;;;;;;;1999.90;999.90;;;11.10;99.90;;;;;;5093459;28;20673;-51
2021/07/20 06:30:00;;;;;;;1999.90;999.90;;;11.00;99.90;;;;;;5093119;28;20164;-46
2021/07/20 06:32:27;;;;;;;1999.90;999.90;;;11.00;99.90;;;;;;5093423;28;20263;-46
2021/07/20 06:34:56;;;;;;;1999.90;999.90;;;10.90;99.90;;;;;;5093496;28;20168;-46
2021/07/20 06:37:27;;;;;;;1999.90;999.90;;;10.90;99.90;;;;;;5093511;28;20606;-44
2021/07/20 06:39:54;;;;;;;1999.90;999.90;;;10.90;99.90;;;;;;5093225;28;20235;-51
2021/07/20 06:42:23;;;;;;;1999.90;999.90;;;10.80;99.90;;;;;;5093165;28;20512;-47
2021/07/20 06:44:50;;;;;;;1999.90;999.90;;;10.80;99.90;;;;;;5093242;28;20160;-57
2021/07/20 06:47:18;;;;;;;1999.90;999.90;;;10.90;99.90;;;;;;5092984;28;20196;-48
2021/07/20 06:49:50;;;;;;;1999.90;999.90;;;11.00;99.90;;;;;;5093132;28;20613;-50
2021/07/20 06:52:18;;;;;;;1999.90;999.90;;;11.10;99.90;;;;;;5093051;28;20609;-49
2021/07/20 06:54:46;;;;;;;1999.90;999.90;;;11.30;99.90;;;;;;5092706;28;20204;-59
2021/07/20 06:57:17;;;;;;;1999.90;999.90;;;11.40;99.90;;;;;;5092833;28;20172;-46
2021/07/20 06:59:44;;;;;;;1999.90;999.90;;;11.60;99.90;;;;;;5092809;28;20606;-46
2021/07/20 07:02:19;;;;;;;1999.90;999.90;;;11.60;99.90;;;;;;5092819;28;20313;-50
2021/07/20 07:05:08;;;;;;;1999.90;999.90;;;11.60;99.90;;;;;;5092637;28;20239;-48
2021/07/20 07:07:36;;;;;;;1999.90;999.90;;;11.60;99.90;;;;;;5092660;28;20202;-51
2021/07/20 07:10:06;;;;;;;1999.90;999.90;;;11.70;99.90;;;;;;5092784;28;20188;-49
2021/07/20 07:12:34;;;;;;;1999.90;999.90;;;11.60;99.90;;;;;;5092902;28;20168;-50
2021/07/20 07:15:06;;;;;;;1999.90;999.90;;;11.70;99.90;;;;;;5092397;28;20232;-47
2021/07/20 07:17:34;;;;;;;1999.90;999.90;;;11.80;99.90;;;;;;5092675;28;20152;-50
2021/07/20 07:20:03;;;;;;;1999.90;999.90;;;11.80;99.90;;;;;;5092331;28;20165;-48
2021/07/20 07:22:35;;;;;;;1999.90;999.90;;;11.70;99.90;;;;;;5092811;28;20280;-49
2021/07/20 07:25:03;;;;;;;1999.90;999.90;;;11.70;99.90;;;;;;5092662;28;20244;-52
2021/07/20 07:27:31;;;;;;;1999.90;999.90;;;11.80;99.90;;;;;;5092482;28;20280;-50
2021/07/20 07:29:59;;;;;;;1999.90;999.90;;;12.00;99.90;;;;;;5092252;28;20171;-53
2021/07/20 07:32:26;;;;;;;1999.90;999.90;;;12.30;99.90;;;;;;5092488;28;20168;-49
2021/07/20 07:34:53;;;;;;;1999.90;999.90;;;12.50;99.90;;;;;;5092611;28;20164;-48
2021/07/20 07:37:25;;;;;;;1999.90;999.90;;;12.50;99.90;;;;;;5092407;28;20168;-50
2021/07/20 07:39:54;;;;;;;1999.90;999.90;;;12.50;99.90;;;;;;5092231;28;20596;-56
2021/07/20 07:42:23;;;;;;;1999.90;999.90;;;13.10;99.90;;;;;;5091647;28;20175;-57
2021/07/20 07:44:53;;;;;;;1999.90;999.90;;;13.10;99.90;;;;;;5092515;28;20160;-50
2021/07/20 07:47:21;;;;;;;1999.90;999.90;;;12.90;99.90;;;;;;5092355;28;20190;-52
2021/07/20 07:49:48;;;;;;;1999.90;999.90;;;12.50;99.90;;;;;;5092218;28;20168;-54
2021/07/20 07:52:16;;;;;;;1999.90;999.90;;;12.50;99.90;;;;;;5092330;28;20159;-51
2021/07/20 07:54:46;;;;;;;1999.90;999.90;;;12.70;99.90;;;;;;5092205;28;20171;-51
2021/07/20 07:57:16;;;;;;;1999.90;999.90;;;12.80;99.90;;;;;;5092247;28;20170;-53
2021/07/20 07:59:45;;;;;;;1999.90;999.90;;;12.60;99.90;;;;;;5092209;28;20531;-49
2021/07/20 08:02:17;;;;;;;1999.90;999.90;;;12.60;99.90;;;;;;5092433;28;20239;-47
2021/07/20 08:04:45;;;;;;;1999.90;999.90;;;12.30;99.90;;;;;;5092222;28;20152;-52
2021/07/20 08:07:13;;;;;;;1999.90;999.90;;;12.40;99.90;;;;;;5092230;28;20206;-48
2021/07/20 08:09:41;;;;;;;1999.90;999.90;;;12.40;99.90;;;;;;5091873;28;20182;-52
2021/07/20 08:12:09;;;;;;;1999.90;999.90;;;12.50;99.90;;;;;;5091915;28;20164;-61
2021/07/20 08:14:37;;;;;;;1999.90;999.90;;;12.70;99.90;;;;;;5092452;28;20645;-50
2021/07/20 08:17:06;;;;;;;1999.90;999.90;;;12.70;99.90;;;;;;5091932;28;20211;-53
2021/07/20 08:19:37;;;;;;;1999.90;999.90;;;12.40;99.90;;;;;;5092248;28;20204;-57
2021/07/20 08:22:11;;;;;;;1999.90;999.90;;;12.00;99.90;;;;;;5091913;28;20300;-53
2021/07/20 08:25:04;;;;;;;1999.90;999.90;;;11.80;99.90;;;;;;5092003;28;20171;-54
2021/07/20 08:27:47;;;;;;;1999.90;999.90;;;11.70;99.90;;;;;;5091914;28;20281;-55
2021/07/20 08:30:16;;;;;;;1999.90;999.90;;;11.60;99.90;;;;;;5092000;28;20618;-51
2021/07/20 08:33:00;;;;;;;1999.90;999.90;;;11.60;99.90;;;;;;5091422;28;20186;-54
2021/07/20 08:35:33;;;;;;;1999.90;999.90;;;11.60;99.90;;;;;;5091643;28;20164;-47
2021/07/20 08:38:09;;;;;;;1999.90;999.90;;;11.90;99.90;;;;;;5091815;28;20199;-55
2021/07/20 08:41:08;;;;;;;1999.90;999.90;;;12.00;99.90;;;;;;5091962;28;20160;-59
2021/07/20 08:43:51;;;;;;;1999.90;999.90;;;12.30;99.90;;;;;;5091716;28;20171;-53
2021/07/20 08:46:42;;;;;;;1999.90;999.90;;;12.40;99.90;;;;;;5091772;28;20144;-51
2021/07/20 08:49:20;;;;;;;1999.90;999.90;;;12.90;99.90;;;;;;5091801;28;20176;-49
2021/07/20 08:52:17;;;;;;;1999.90;999.90;;;13.00;99.90;;;;;;5091740;28;20172;-50
2021/07/20 08:54:59;;;;;;;1999.90;999.90;;;12.90;99.90;;;;;;5094742;28;20164;-47
2021/07/20 08:57:55;;;;;;;1999.90;999.90;;;12.90;99.90;;;;;;5095315;28;20209;-49
2021/07/20 09:00:25;;;;;;;1999.90;999.90;;;12.80;99.90;;;;;;5095295;28;20207;-49
2021/07/20 09:03:13;;;;;;;1999.90;999.90;;;12.70;99.90;;;;;;5095790;28;20504;-53
2021/07/20 09:06:04;;;;;;;1999.90;999.90;;;12.70;99.90;;;;;;5095629;28;20152;-50
2021/07/20 09:08:34;;;;;;;1999.90;999.90;;;12.80;99.90;;;;;;5095070;28;20209;-54
2021/07/20 09:11:05;;;;;;;1999.90;999.90;;;12.90;99.90;;;;;;5095124;28;20190;-51
2021/07/20 09:13:35;;;;;;;1999.90;999.90;;;12.90;99.90;;;;;;5095174;28;20183;-49
2021/07/20 09:16:19;;;;;;;1999.90;999.90;;;12.70;99.90;;;;;;5094851;28;20239;-49
2021/07/20 09:18:55;;;;;;;1999.90;999.90;;;12.50;99.90;;;;;;5095001;28;20238;-51
2021/07/20 09:21:27;;;;;;;1999.90;999.90;;;12.80;99.90;;;;;;5095181;28;20675;-51
2021/07/20 09:24:15;;;;;;;1999.90;999.90;;;12.90;99.90;;;;;;5094980;28;20191;-50
2021/07/20 09:26:52;;;;;;;1999.90;999.90;;;12.90;99.90;;;;;;5095141;28;20259;-53
2021/07/20 09:29:23;;;;;;;1999.90;999.90;;;12.70;99.90;;;;;;5094915;28;20198;-53
2021/07/20 09:32:02;;;;;;;1999.90;999.90;;;12.70;99.90;;;;;;5094898;28;20152;-51
2021/07/20 09:34:55;;;;;;;1999.90;999.90;;;12.80;99.90;;;;;;5094493;28;20160;-51
2021/07/20 09:37:35;;;;;;;1999.90;999.90;;;13.00;99.90;;;;;;5090553;28;20589;-51
2021/07/20 09:40:31;;;;;;;1999.90;999.90;;;13.30;99.90;;;;;;5094698;28;20152;-52
2021/07/20 09:43:08;;;;;;;1999.90;999.90;;;13.40;99.90;;;;;;5094618;28;20614;-49
2021/07/20 09:45:44;;;;;;;1999.90;999.90;;;13.50;99.90;;;;;;5094421;28;20246;-50
2021/07/20 09:48:22;;;;;;;1999.90;999.90;;;13.50;99.90;;;;;;5094605;28;20536;-48
2021/07/20 09:51:11;;;;;;;1999.90;999.90;;;13.60;99.90;;;;;;5094549;28;20174;-53
2021/07/20 09:54:06;;;;;;;1999.90;999.90;;;14.00;99.90;;;;;;5094485;28;20156;-49
2021/07/20 09:57:03;;;;;;;1999.90;999.90;;;14.10;99.90;;;;;;5094486;28;20156;-49
2021/07/20 10:00:07;;;;;;;1999.90;999.90;;;13.80;99.90;;;;;;5094335;28;20160;-50
2021/07/20 10:03:10;;;;;;;1999.90;999.90;;;13.80;99.90;;;;;;5094026;28;20246;-50
2021/07/20 10:06:01;;;;;;;1999.90;999.90;;;14.00;99.70;;;;;;5092125;28;20702;-48
2021/07/20 10:08:50;;;;;;;1999.90;999.90;;;14.20;99.90;;;;;;5093967;28;20200;-48
2021/07/20 10:11:30;;;;;;;1999.90;999.90;;;14.10;99.90;;;;;;5094024;28;20160;-50
2021/07/20 10:14:09;;;;;;;1999.90;999.90;;;14.00;99.90;;;;;;5093827;28;20693;-54
2021/07/20 10:16:44;;;;;;;1999.90;999.90;;;13.80;99.90;;;;;;5094034;28;20268;-53
2021/07/20 10:19:24;;;;;;;1999.90;999.90;;;13.80;99.90;;;;;;5093996;28;20625;-56
2021/07/20 10:21:54;;;;;;;1999.90;999.90;;;13.80;99.90;;;;;;5093927;28;20152;-49
2021/07/20 10:24:27;;;;;;;1999.90;999.90;;;13.80;99.90;;;;;;5092479;28;20258;-56
2021/07/20 10:27:08;;;;;;;1999.90;999.90;;;13.90;99.90;;;;;;5093811;28;20164;-54
2021/07/20 10:30:10;;;;;;;1999.90;999.90;;;13.90;99.40;;;;;;5093968;28;20152;-50
2021/07/20 10:32:49;;;;;;;1999.90;999.90;;;13.80;99.90;;;;;;5094288;28;20633;-49
2021/07/20 10:35:54;;;;;;;1999.90;999.90;;;13.80;99.90;;;;;;5094157;28;20210;-53
2021/07/20 10:38:27;;;;;;;1999.90;999.90;;;13.70;99.90;;;;;;5083563;28;20296;-49
2021/07/20 10:40:56;;;;;;;1999.90;999.90;;;13.60;99.90;;;;;;5093892;28;20152;-55
2021/07/20 10:43:31;;;;;;;1999.90;999.90;;;13.60;99.90;;;;;;5093852;28;20203;-54
2021/07/20 10:46:00;;;;;;;1999.90;999.90;;;13.50;99.90;;;;;;5093550;28;20179;-55
2021/07/20 10:48:33;;;;;;;1999.90;999.90;;;13.50;99.90;;;;;;5093364;28;20257;-50
2021/07/20 10:51:10;;;;;;;1999.90;999.90;;;13.60;99.10;;;;;;5093553;28;20254;-50
2021/07/20 10:53:59;;;;;;;1999.90;999.90;;;13.60;99.20;;;;;;5093199;28;20163;-54
2021/07/20 10:56:41;;;;;;;1999.90;999.90;;;13.60;97.90;;;;;;5093174;28;20518;-54
2021/07/20 10:59:45;;;;;;;1999.90;999.90;;;13.50;98.90;;;;;;5093093;28;20524;-56
2021/07/20 11:02:33;;;;;;;1999.90;999.90;;;13.60;98.50;;;;;;5093141;28;20668;-49
2021/07/20 11:05:04;;;;;;;1999.90;999.90;;;13.50;98.50;;;;;;5093124;28;20623;-48
2021/07/20 11:07:34;;;;;;;1999.90;999.90;;;13.60;96.60;;;;;;5093082;28;20192;-49
2021/07/20 11:10:12;;;;;;;1999.90;999.90;;;13.70;97.20;;;;;;5093095;28;20172;-48
2021/07/20 11:12:43;;;;;;;1999.90;999.90;;;13.90;96.20;;;;;;5092906;28;20239;-48
2021/07/20 11:15:10;;;;;;;1999.90;999.90;;;13.90;95.30;;;;;;5092794;28;21602;-48
2021/07/20 11:17:40;;;;;;;1999.90;999.90;;;13.90;96.00;;;;;;5093013;28;20189;-50
2021/07/20 11:20:13;;;;;;;1999.90;999.90;;;14.00;94.90;;;;;;5092687;28;20532;-48
2021/07/20 11:22:41;;;;;;;1999.90;999.90;;;14.20;94.00;;;;;;5092811;28;20164;-47
2021/07/20 11:25:10;;;;;;;1999.90;999.90;;;14.10;94.40;;;;;;5092638;28;20171;-51
2021/07/20 11:27:42;;;;;;;1999.90;999.90;;;14.20;94.60;;;;;;5092651;28;20207;-48
2021/07/20 11:30:13;;;;;;;1999.90;999.90;;;14.10;93.00;;;;;;5092477;28;20217;-49
2021/07/20 11:32:50;;;;;;;1999.90;999.90;;;14.10;94.00;;;;;;5092553;28;20168;-45
2021/07/20 11:35:20;;;;;;;1999.90;999.90;;;14.00;96.10;;;;;;5092738;28;20222;-43
2021/07/20 11:38:12;;;;;;;1999.90;999.90;;;14.00;93.80;;;;;;5092834;28;20661;-43
2021/07/20 11:41:20;;;;;;;1999.90;999.90;;;14.40;93.40;;;;;;5092582;28;20156;-46
2021/07/20 11:44:12;;;;;;;1999.90;999.90;;;14.20;91.30;;;;;;5082071;28;20198;-44
2021/07/20 11:47:05;;;;;;;1999.90;999.90;;;14.30;91.20;;;;;;5092616;28;20699;-46
2021/07/20 11:50:04;;;;;;;1999.90;999.90;;;14.40;92.10;;;;;;5092675;28;20175;-45
2021/07/20 11:53:08;;;;;;;1999.90;999.90;;;14.60;91.80;;;;;;5092728;28;20210;-44
2021/07/20 11:55:56;;;;;;;1999.90;999.90;;;14.80;91.70;;;;;;5020353;28;20240;-44
2021/07/20 11:58:47;;;;;;;1999.90;999.90;;;14.70;92.20;;;;;;5092362;28;20182;-44
2021/07/20 12:01:14;;;;;;;1999.90;999.90;;;14.60;91.70;;;;;;5092628;28;20221;-44
2021/07/20 12:04:22;;;;;;;1999.90;999.90;;;14.80;91.60;;;;;;5092483;28;20196;-46
2021/07/20 12:07:24;;;;;;;1999.90;999.90;;;14.80;92.80;;;;;;5010119;28;20569;-44
2021/07/20 12:10:22;;;;;;;1999.90;999.90;;;15.00;78.60;;;;;;5060268;28;20190;-44
2021/07/20 12:12:51;;;;;;;1999.90;999.90;;;14.80;82.50;;;;;;5092340;28;20152;-45
2021/07/20 12:15:21;;;;;;;1999.90;999.90;;;14.80;80.60;;;;;;5092051;28;20255;-45
2021/07/20 12:17:49;;;;;;;1999.90;999.90;;;14.90;85.70;;;;;;5092229;28;20164;-47
2021/07/20 12:20:18;;;;;;;1999.90;999.90;;;15.00;80.10;;;;;;5092295;28;20649;-46
2021/07/20 12:22:50;;;;;;;1999.90;999.90;;;15.00;80.00;;;;;;5092279;28;20167;-45
2021/07/20 12:25:19;;;;;;;1999.90;999.90;;;14.80;85.10;;;;;;5092227;28;20594;-47
2021/07/20 12:27:47;;;;;;;1999.90;999.90;;;14.80;85.40;;;;;;5091898;28;20235;-45
2021/07/20 12:30:18;;;;;;;1999.90;999.90;;;14.70;84.00;;;;;;5095580;28;20167;-45